createdAt,value
2023-04-06T00:01:56.600Z,-0.56
2023-04-06T00:04:27.686Z,-0.52
2023-04-06T00:06:57.500Z,-0.49
2023-04-06T00:09:26.782Z,-0.47
2023-04-06T00:11:56.448Z,-0.47
2023-04-06T00:14:25.897Z,-0.47
2023-04-06T00:16:55.336Z,-0.44
2023-04-06T00:19:26.279Z,-0.43
2023-04-06T00:21:56.207Z,-0.41
2023-04-06T00:24:26.556Z,-0.36
2023-04-06T00:26:56.484Z,-0.36
2023-04-06T00:29:26.050Z,-0.34
2023-04-06T00:31:55.443Z,-0.33
2023-04-06T00:34:26.375Z,-0.31
2023-04-06T00:36:55.946Z,-0.31
2023-04-06T00:39:25.604Z,-0.31
2023-04-06T00:41:56.152Z,-0.32
2023-04-06T00:44:26.456Z,-0.30
2023-04-06T00:46:56.356Z,-0.30
2023-04-06T00:49:27.568Z,-0.29
2023-04-06T00:51:59.978Z,-0.28
2023-04-06T00:54:30.707Z,-0.31
2023-04-06T00:57:01.558Z,-0.30
2023-04-06T00:59:33.609Z,-0.29
2023-04-06T01:02:04.988Z,-0.29
2023-04-06T01:04:42.747Z,-0.30
2023-04-06T01:07:18.771Z,-0.32
2023-04-06T01:10:03.928Z,-0.32
2023-04-06T01:12:35.312Z,-0.34
2023-04-06T01:15:12.134Z,-0.42
2023-04-06T01:17:45.929Z,-0.39
2023-04-06T01:20:19.946Z,-0.39
2023-04-06T01:22:50.940Z,-0.41
2023-04-06T01:25:21.814Z,-0.44
2023-04-06T01:28:04.858Z,-0.45
2023-04-06T01:30:52.041Z,-0.49
2023-04-06T01:33:40.419Z,-0.52
2023-04-06T01:36:15.022Z,-0.56
2023-04-06T01:38:47.281Z,-0.60
2023-04-06T01:41:19.527Z,-0.63
2023-04-06T01:43:55.680Z,-0.66
2023-04-06T01:46:29.109Z,-0.70
2023-04-06T01:48:58.714Z,-0.72
2023-04-06T01:51:37.710Z,-0.75
2023-04-06T01:54:11.403Z,-0.79
2023-04-06T01:57:07.211Z,-0.84
2023-04-06T01:59:43.669Z,-0.87
2023-04-06T02:02:21.756Z,-0.90
2023-04-06T02:05:01.383Z,-0.94
2023-04-06T02:07:31.561Z,-0.97
2023-04-06T02:10:02.203Z,-1.00
2023-04-06T02:12:39.011Z,-1.02
2023-04-06T02:15:14.349Z,-1.11
2023-04-06T02:17:44.351Z,-1.10
2023-04-06T02:20:14.334Z,-1.13
2023-04-06T02:22:43.822Z,-1.13
2023-04-06T02:25:14.664Z,-1.18
2023-04-06T02:27:44.191Z,-1.25
2023-04-06T03:05:08.070Z,-1.70
2023-04-06T03:07:42.033Z,-1.72
2023-04-06T03:10:17.208Z,-1.74
2023-04-06T03:12:48.404Z,-1.76
2023-04-06T03:15:17.701Z,-1.76
2023-04-06T03:17:52.757Z,-1.78
2023-04-06T03:20:36.789Z,-1.80
2023-04-06T03:23:07.035Z,-1.81
2023-04-06T03:25:41.398Z,-1.90
2023-04-06T03:28:13.538Z,-1.95
2023-04-06T03:30:52.350Z,-1.95
2023-04-06T03:33:32.094Z,-1.97
2023-04-06T03:36:02.882Z,-2.04
2023-04-06T03:38:34.454Z,-2.10
2023-04-06T03:41:06.760Z,-2.08
2023-04-06T03:43:36.491Z,-2.13
2023-04-06T03:46:05.880Z,-2.09
2023-04-06T03:48:35.969Z,-2.09
2023-04-06T03:51:09.210Z,-2.16
2023-04-06T03:53:39.116Z,-2.14
2023-04-06T03:56:08.954Z,-2.11
2023-04-06T03:58:38.272Z,-2.15
2023-04-06T04:01:07.518Z,-2.22
2023-04-06T04:03:38.640Z,-2.25
2023-04-06T04:06:10.127Z,-2.24
2023-04-06T04:08:40.244Z,-2.25
2023-04-06T04:11:11.537Z,-2.26
2023-04-06T04:13:41.283Z,-2.29
2023-04-06T04:16:12.067Z,-2.31
2023-04-06T04:18:41.689Z,-2.33
2023-04-06T04:21:12.430Z,-2.39
2023-04-06T04:23:42.073Z,-2.43
2023-04-06T04:26:11.373Z,-2.38
2023-04-06T04:28:41.202Z,-2.37
2023-04-06T04:31:11.312Z,-2.40
2023-04-06T04:33:42.541Z,-2.40
2023-04-06T04:36:18.831Z,-2.45
2023-04-06T04:38:50.378Z,-2.43
2023-04-06T04:41:20.019Z,-2.43
2023-04-06T04:43:51.321Z,-2.47
2023-04-06T04:46:24.978Z,-2.49
2023-04-06T04:48:55.947Z,-2.51
2023-04-06T04:51:27.154Z,-2.47
2023-04-06T04:54:07.913Z,-2.45
2023-04-06T04:56:37.259Z,-2.49
2023-04-06T04:59:20.406Z,-2.46
2023-04-06T05:01:57.304Z,-2.44
2023-04-06T05:04:35.458Z,-2.40
2023-04-06T05:07:10.128Z,-2.38
2023-04-06T05:09:42.541Z,-2.35
2023-04-06T05:12:12.741Z,-2.30
2023-04-06T05:14:53.104Z,-2.25
2023-04-06T05:17:24.688Z,-2.23
2023-04-06T05:19:54.566Z,-2.18
2023-04-06T05:22:28.607Z,-2.12
2023-04-06T05:25:05.909Z,-2.01
2023-04-06T05:27:36.664Z,-1.95
2023-04-06T05:30:11.697Z,-1.87
2023-04-06T05:32:47.507Z,-1.75
2023-04-06T05:35:18.247Z,-1.67
2023-04-06T05:37:52.280Z,-1.52
2023-04-06T05:40:26.162Z,-1.43
2023-04-06T05:42:56.380Z,-1.38
2023-04-06T05:45:26.267Z,-1.32
2023-04-06T05:47:58.735Z,-1.22
2023-04-06T05:50:31.875Z,-1.13
2023-04-06T05:53:02.769Z,-1.06
2023-04-06T05:55:39.350Z,-0.98
2023-04-06T05:58:19.506Z,-0.80
2023-04-06T06:00:50.790Z,-0.61
2023-04-06T06:03:23.850Z,-0.43
2023-04-06T06:06:01.617Z,-0.35
2023-04-06T06:08:38.756Z,-0.24
2023-04-06T06:11:15.000Z,-0.23
2023-04-06T06:13:44.525Z,-0.13
2023-04-06T06:16:14.190Z,0.04
2023-04-06T06:18:47.946Z,0.21
2023-04-06T06:21:18.280Z,0.30
2023-04-06T06:23:51.225Z,0.42
2023-04-06T06:26:23.733Z,0.51
2023-04-06T06:28:53.534Z,0.58
2023-04-06T06:31:23.973Z,0.72
2023-04-06T06:33:53.429Z,0.77
2023-04-06T06:36:24.101Z,0.85
2023-04-06T06:38:55.967Z,0.92
2023-04-06T06:41:25.990Z,1.00
2023-04-06T06:43:56.018Z,1.10
2023-04-06T06:46:25.791Z,1.18
2023-04-06T06:48:55.018Z,1.28
2023-04-06T06:51:24.688Z,1.35
2023-04-06T06:53:56.716Z,1.45
2023-04-06T06:56:27.777Z,1.54
2023-04-06T06:58:58.003Z,1.66
2023-04-06T07:01:27.718Z,1.81
2023-04-06T07:03:58.353Z,1.92
2023-04-06T07:06:28.071Z,2.05
2023-04-06T07:08:58.937Z,2.19
2023-04-06T07:11:28.693Z,2.33
2023-04-06T07:13:58.138Z,2.47
2023-04-06T07:16:27.847Z,2.64
2023-04-06T07:18:57.823Z,2.81
2023-04-06T07:21:28.308Z,2.94
2023-04-06T07:24:00.082Z,3.10
2023-04-06T07:26:29.864Z,3.24
2023-04-06T07:28:59.947Z,3.40
2023-04-06T07:31:29.554Z,3.53
2023-04-06T07:33:58.899Z,3.68
2023-04-06T07:36:31.668Z,3.83
2023-04-06T07:39:03.142Z,3.96
2023-04-06T07:41:33.669Z,4.10
2023-04-06T07:44:04.043Z,4.21
2023-04-06T07:46:34.294Z,4.37
2023-04-06T07:49:04.425Z,4.50
2023-04-06T07:51:38.908Z,4.61
2023-04-06T07:54:09.916Z,4.73
2023-04-06T07:56:39.745Z,4.90
2023-04-06T07:59:09.041Z,5.04
2023-04-06T08:01:38.725Z,5.18
2023-04-06T08:04:08.334Z,5.28
2023-04-06T08:06:38.391Z,5.42
2023-04-06T08:09:09.210Z,5.51
2023-04-06T08:11:39.031Z,5.64
2023-04-06T08:14:08.927Z,5.75
2023-04-06T08:16:38.820Z,5.85
2023-04-06T08:19:10.211Z,5.97
2023-04-06T08:21:43.651Z,6.07
2023-04-06T08:24:15.791Z,6.17
2023-04-06T08:26:45.653Z,6.32
2023-04-06T08:29:15.006Z,6.45
2023-04-06T08:31:44.567Z,6.61
2023-04-06T08:34:15.463Z,6.77
2023-04-06T08:36:46.588Z,6.87
2023-04-06T08:39:17.299Z,7.01
2023-04-06T08:41:47.169Z,7.13
2023-04-06T08:44:16.811Z,7.12
2023-04-06T08:46:46.569Z,7.07
2023-04-06T08:49:18.371Z,7.07
2023-04-06T08:51:48.525Z,7.08
2023-04-06T08:54:19.401Z,7.05
2023-04-06T08:56:49.850Z,7.02
2023-04-06T08:59:19.618Z,6.96
2023-04-06T09:01:49.819Z,6.97
2023-04-06T09:04:20.075Z,6.94
2023-04-06T09:06:50.986Z,6.92
2023-04-06T09:09:24.701Z,6.85
2023-04-06T09:11:55.080Z,6.81
2023-04-06T09:14:35.804Z,6.76
2023-04-06T09:17:05.902Z,6.77
2023-04-06T09:19:34.988Z,6.78
2023-04-06T09:22:06.069Z,6.79
2023-04-06T09:24:48.029Z,6.77
2023-04-06T09:27:18.563Z,6.84
2023-04-06T09:29:47.931Z,6.87
2023-04-06T09:32:18.223Z,6.95
2023-04-06T09:34:50.790Z,7.01
2023-04-06T09:37:21.614Z,7.08
2023-04-06T09:39:56.265Z,7.12
2023-04-06T09:42:28.866Z,7.12
2023-04-06T09:44:58.216Z,7.17
2023-04-06T09:47:29.689Z,7.19
2023-04-06T09:50:01.129Z,7.18
2023-04-06T09:52:35.649Z,7.14
2023-04-06T09:55:09.160Z,7.11
2023-04-06T09:57:47.792Z,7.08
2023-04-06T10:00:22.850Z,6.96
2023-04-06T10:02:58.998Z,6.96
2023-04-06T10:05:36.182Z,7.02
2023-04-06T10:08:11.713Z,7.06
2023-04-06T10:10:42.610Z,7.07
2023-04-06T10:13:13.826Z,7.10
2023-04-06T10:15:44.336Z,7.12
2023-04-06T10:18:14.403Z,7.15
2023-04-06T10:20:50.653Z,7.30
2023-04-06T10:23:26.386Z,7.34
2023-04-06T10:25:58.620Z,7.41
2023-04-06T10:28:32.848Z,7.53
2023-04-06T10:31:03.512Z,7.61
2023-04-06T10:33:33.230Z,7.66
2023-04-06T10:36:13.320Z,7.67
2023-04-06T10:38:43.972Z,7.74
2023-04-06T10:41:15.210Z,7.89
2023-04-06T10:43:46.406Z,7.95
2023-04-06T10:46:28.264Z,7.98
2023-04-06T10:48:57.923Z,8.09
2023-04-06T10:51:32.093Z,8.14
2023-04-06T10:54:03.789Z,8.19
2023-04-06T10:56:39.963Z,8.18
2023-04-06T10:59:09.983Z,8.23
2023-04-06T11:01:39.096Z,8.25
2023-04-06T11:04:10.881Z,8.28
2023-04-06T11:06:41.604Z,8.20
2023-04-06T11:09:11.582Z,8.23
2023-04-06T11:11:42.434Z,8.27
2023-04-06T11:14:13.156Z,8.29
2023-04-06T11:16:42.686Z,8.34
2023-04-06T11:19:13.570Z,8.38
2023-04-06T11:21:47.747Z,8.45
2023-04-06T11:24:18.929Z,8.42
2023-04-06T11:26:52.889Z,8.41
2023-04-06T11:29:24.362Z,8.46
2023-04-06T11:31:55.505Z,8.49
2023-04-06T11:34:26.450Z,8.49
2023-04-06T11:36:59.261Z,8.42
2023-04-06T11:39:30.742Z,8.43
2023-04-06T11:42:05.542Z,8.50
2023-04-06T11:44:37.554Z,8.59
2023-04-06T11:47:08.075Z,8.66
2023-04-06T11:49:46.726Z,8.70
2023-04-06T11:52:20.913Z,8.70
2023-04-06T11:54:53.403Z,8.78
2023-04-06T11:57:26.357Z,8.91
2023-04-06T11:59:57.458Z,8.96
2023-04-06T12:02:27.205Z,9.02
2023-04-06T12:04:56.851Z,9.03
2023-04-06T12:07:26.206Z,9.04
2023-04-06T12:09:55.798Z,9.09
2023-04-06T12:12:26.600Z,9.09
2023-04-06T12:14:56.404Z,9.15
2023-04-06T12:17:25.793Z,9.18
2023-04-06T12:19:57.168Z,9.19
2023-04-06T12:22:32.181Z,9.26
2023-04-06T12:25:01.826Z,9.28
2023-04-06T12:27:36.083Z,9.34
2023-04-06T12:30:06.451Z,9.42
2023-04-06T12:32:38.116Z,9.39
2023-04-06T12:35:09.925Z,9.43
2023-04-06T12:37:41.327Z,9.49
2023-04-06T12:40:12.922Z,9.57
2023-04-06T12:42:46.875Z,9.56
2023-04-06T12:45:17.262Z,9.50
2023-04-06T12:47:47.933Z,9.57
2023-04-06T12:50:17.150Z,9.62
2023-04-06T12:52:46.685Z,9.64
2023-04-06T12:55:16.320Z,9.67
2023-04-06T12:57:48.075Z,9.62
2023-04-06T13:00:19.983Z,9.57
2023-04-06T13:02:49.355Z,9.54
2023-04-06T13:05:19.960Z,9.51
2023-04-06T13:07:49.527Z,9.53
2023-04-06T13:10:19.134Z,9.56
2023-04-06T13:12:49.952Z,9.51
2023-04-06T13:15:19.889Z,9.47
2023-04-06T13:17:49.171Z,9.53
2023-04-06T13:20:18.657Z,9.50
2023-04-06T13:22:49.857Z,9.52
2023-04-06T13:25:20.525Z,9.54
2023-04-06T13:27:51.809Z,9.55
2023-04-06T13:30:21.654Z,9.54
2023-04-06T13:32:51.017Z,9.51
2023-04-06T13:35:22.186Z,9.44
2023-04-06T13:37:53.204Z,9.50
2023-04-06T13:40:22.909Z,9.42
2023-04-06T13:42:53.649Z,9.36
2023-04-06T13:45:23.228Z,9.25
2023-04-06T13:47:53.190Z,9.18
2023-04-06T13:50:22.709Z,9.08
2023-04-06T13:52:52.073Z,8.98
2023-04-06T13:55:21.634Z,8.95
2023-04-06T13:57:52.122Z,8.90
2023-04-06T14:00:23.285Z,8.91
2023-04-06T14:02:52.544Z,8.85
2023-04-06T14:05:22.024Z,8.78
2023-04-06T14:07:51.224Z,8.70
2023-04-06T14:10:22.269Z,8.67
2023-04-06T14:12:53.670Z,8.61
2023-04-06T14:15:24.901Z,8.71
2023-04-06T14:17:54.529Z,8.68
2023-04-06T14:20:23.933Z,8.80
2023-04-06T14:22:53.762Z,8.91
2023-04-06T14:25:24.884Z,8.99
2023-04-06T14:27:55.467Z,9.01
2023-04-06T14:30:24.955Z,9.04
2023-04-06T14:32:54.139Z,9.07
2023-04-06T14:35:23.372Z,8.93
2023-04-06T14:37:52.546Z,8.97
2023-04-06T14:40:22.001Z,8.92
2023-04-06T14:42:53.731Z,8.75
2023-04-06T14:45:25.024Z,8.60
2023-04-06T14:47:55.703Z,8.55
2023-04-06T14:50:25.261Z,8.51
2023-04-06T14:52:54.513Z,8.47
2023-04-06T14:55:23.872Z,8.37
2023-04-06T14:57:54.245Z,8.11
2023-04-06T15:00:25.556Z,8.08
2023-04-06T15:02:54.787Z,8.00
2023-04-06T15:05:24.122Z,7.78
2023-04-06T15:07:53.420Z,7.72
2023-04-06T15:10:22.781Z,7.60
2023-04-06T15:12:52.090Z,7.67
2023-04-06T15:15:21.933Z,7.54
2023-04-06T15:17:54.304Z,7.47
2023-04-06T15:20:23.857Z,7.33
2023-04-06T15:22:53.006Z,7.27
2023-04-06T15:25:23.304Z,7.14
2023-04-06T15:27:52.581Z,7.08
2023-04-06T15:30:21.986Z,7.01
2023-04-06T15:32:58.049Z,6.93
2023-04-06T15:35:28.608Z,6.89
2023-04-06T15:37:58.197Z,6.80
2023-04-06T15:40:29.054Z,6.69
2023-04-06T15:42:58.404Z,6.66
2023-04-06T15:45:27.985Z,6.48
2023-04-06T15:47:58.666Z,6.39
2023-04-06T15:50:29.477Z,6.45
2023-04-06T15:52:58.831Z,6.36
2023-04-06T15:55:28.228Z,6.32
2023-04-06T15:57:57.399Z,6.26
2023-04-06T16:00:28.667Z,6.27
2023-04-06T16:02:59.379Z,6.21
2023-04-06T16:05:34.610Z,6.16
2023-04-06T16:08:04.230Z,6.11
2023-04-06T16:10:33.753Z,6.10
2023-04-06T16:13:03.022Z,6.03
2023-04-06T16:15:32.564Z,6.01
2023-04-06T16:18:04.247Z,6.02
2023-04-06T16:20:33.741Z,5.93
2023-04-06T16:23:04.310Z,5.84
2023-04-06T16:25:33.703Z,5.83
2023-04-06T16:28:03.225Z,5.83
2023-04-06T16:30:32.823Z,5.77
2023-04-06T16:33:03.309Z,5.76
2023-04-06T16:35:33.500Z,5.77
2023-04-06T16:38:02.595Z,5.79
2023-04-06T16:40:31.944Z,5.75
2023-04-06T16:43:01.755Z,5.59
2023-04-06T16:45:31.276Z,5.58
2023-04-06T16:48:00.666Z,5.52
2023-04-06T16:50:31.773Z,5.59
2023-04-06T16:53:02.301Z,5.58
2023-04-06T16:55:34.386Z,5.56
2023-04-06T16:58:03.744Z,5.48
2023-04-06T17:00:33.202Z,5.43
2023-04-06T17:03:02.786Z,5.48
2023-04-06T17:05:34.840Z,5.39
2023-04-06T17:08:04.354Z,5.35
2023-04-06T17:10:37.288Z,5.32
2023-04-06T17:13:11.143Z,5.28
2023-04-06T17:15:40.931Z,5.27
2023-04-06T17:18:11.771Z,5.33
2023-04-06T17:20:43.308Z,5.25
2023-04-06T17:23:12.999Z,5.18
2023-04-06T17:25:42.473Z,5.25
2023-04-06T17:28:11.977Z,5.18
2023-04-06T17:30:42.768Z,5.16
2023-04-06T17:33:12.602Z,5.14
2023-04-06T17:35:43.514Z,5.11
2023-04-06T17:38:12.706Z,5.00
2023-04-06T17:40:42.042Z,5.02
2023-04-06T17:43:12.272Z,4.97
2023-04-06T17:45:41.255Z,4.93
2023-04-06T17:48:12.050Z,4.93
2023-04-06T17:50:42.942Z,4.93
2023-04-06T17:53:13.395Z,4.93
2023-04-06T17:55:44.859Z,4.94
2023-04-06T17:58:16.381Z,4.90
2023-04-06T18:00:46.058Z,4.91
2023-04-06T18:03:16.307Z,4.81
2023-04-06T18:05:47.523Z,4.80
2023-04-06T18:08:17.911Z,4.72
2023-04-06T18:10:48.774Z,4.73
2023-04-06T18:13:20.128Z,4.77
2023-04-06T18:15:49.873Z,4.73
2023-04-06T18:18:20.213Z,4.69
2023-04-06T18:20:52.537Z,4.63
2023-04-06T18:23:23.857Z,4.62
2023-04-06T18:26:08.295Z,4.61
2023-04-06T18:28:37.888Z,4.51
2023-04-06T18:31:07.391Z,4.54
2023-04-06T18:33:37.065Z,4.49
2023-04-06T18:36:10.048Z,4.50
2023-04-06T18:38:44.037Z,4.47
2023-04-06T18:41:13.845Z,4.51
2023-04-06T18:43:43.533Z,4.48
2023-04-06T18:46:14.751Z,4.47
2023-04-06T18:48:45.001Z,4.46
2023-04-06T18:51:15.781Z,4.48
2023-04-06T18:53:45.320Z,4.44
2023-04-06T18:56:19.570Z,4.37
2023-04-06T18:58:51.558Z,4.38
2023-04-06T19:01:26.618Z,4.32
2023-04-06T19:03:58.422Z,4.33
2023-04-06T19:06:30.252Z,4.34
2023-04-06T19:09:01.929Z,4.41
2023-04-06T19:11:34.120Z,4.39
2023-04-06T19:14:07.895Z,4.36
2023-04-06T19:16:42.244Z,4.39
2023-04-06T19:19:14.988Z,4.33
2023-04-06T19:21:51.589Z,4.36
2023-04-06T19:24:22.118Z,4.36
2023-04-06T19:26:52.553Z,4.36
2023-04-06T19:29:23.664Z,4.39
2023-04-06T19:31:53.115Z,4.36
2023-04-06T19:34:24.526Z,4.33
2023-04-06T19:36:57.063Z,4.36
2023-04-06T19:39:28.539Z,4.37
2023-04-06T19:41:58.538Z,4.40
2023-04-06T19:44:28.202Z,4.42
2023-04-06T19:46:58.013Z,4.35
2023-04-06T19:49:29.668Z,4.35
2023-04-06T19:52:00.287Z,4.34
2023-04-06T19:54:33.900Z,4.31
2023-04-06T19:57:03.419Z,4.31
2023-04-06T19:59:35.664Z,4.34
2023-04-06T20:02:08.004Z,4.35
2023-04-06T20:04:42.955Z,4.30
2023-04-06T20:07:13.987Z,4.34
2023-04-06T20:09:44.718Z,4.34
2023-04-06T20:12:16.118Z,4.31
2023-04-06T20:14:50.586Z,4.29
2023-04-06T20:17:20.486Z,4.38
2023-04-06T20:19:52.083Z,4.34
2023-04-06T20:22:25.206Z,4.27
2023-04-06T20:24:55.232Z,4.29
2023-04-06T20:27:25.386Z,4.30
2023-04-06T20:29:57.108Z,4.33
2023-04-06T20:32:26.901Z,4.29
2023-04-06T20:34:57.166Z,4.36
2023-04-06T20:37:27.986Z,4.36
2023-04-06T20:40:01.287Z,4.28
2023-04-06T20:42:33.061Z,4.34
2023-04-06T20:45:06.738Z,4.32
2023-04-06T20:47:37.479Z,4.34
2023-04-06T20:50:09.328Z,4.39
2023-04-06T20:52:40.746Z,4.39
2023-04-06T20:55:14.661Z,4.42
2023-04-06T20:57:45.697Z,4.39
2023-04-06T21:00:17.294Z,4.39
2023-04-06T21:02:47.434Z,4.44
2023-04-06T21:05:17.053Z,4.42
2023-04-06T21:07:47.703Z,4.52
2023-04-06T21:10:18.594Z,4.50
2023-04-06T21:12:47.768Z,4.44
2023-04-06T21:15:21.605Z,4.42
2023-04-06T21:17:50.897Z,4.47
2023-04-06T21:20:20.428Z,4.48
2023-04-06T21:22:50.978Z,4.46
2023-04-06T21:25:20.568Z,4.48
2023-04-06T21:27:49.620Z,4.48
2023-04-06T21:30:20.792Z,4.48
2023-04-06T21:32:50.192Z,4.54
2023-04-06T21:35:19.638Z,4.54
2023-04-06T21:37:50.458Z,4.58
2023-04-06T21:40:20.949Z,4.63
2023-04-06T21:42:50.689Z,4.60
2023-04-06T21:45:19.859Z,4.59
2023-04-06T21:47:49.400Z,4.56
2023-04-06T21:50:19.413Z,4.57
2023-04-06T21:52:49.769Z,4.53
2023-04-06T21:55:19.312Z,4.56
2023-04-06T21:57:48.440Z,4.61
2023-04-06T22:00:19.996Z,4.56
2023-04-06T22:02:49.544Z,4.61
2023-04-06T22:05:19.437Z,4.61
2023-04-06T22:07:50.125Z,4.60
2023-04-06T22:10:20.041Z,4.64
2023-04-06T22:12:51.506Z,4.61
2023-04-06T22:15:21.099Z,4.65
2023-04-06T22:17:50.607Z,4.65
2023-04-06T22:20:19.956Z,4.68
2023-04-06T22:22:51.195Z,4.77
2023-04-06T22:25:20.896Z,4.79
2023-04-06T22:27:50.159Z,4.78
2023-04-06T22:30:19.773Z,4.73
2023-04-06T22:32:48.908Z,4.69
2023-04-06T22:35:18.488Z,4.69
2023-04-06T22:37:48.975Z,4.72
2023-04-06T22:40:18.329Z,4.73
2023-04-06T22:42:47.610Z,4.79
2023-04-06T22:45:16.963Z,4.82
2023-04-06T22:47:46.191Z,4.78
2023-04-06T22:50:16.115Z,4.78
2023-04-06T22:52:45.564Z,4.84
2023-04-06T22:55:16.489Z,4.83
2023-04-06T22:57:45.649Z,4.81
2023-04-06T23:00:15.813Z,4.82
2023-04-06T23:02:45.110Z,4.84
2023-04-06T23:05:14.649Z,4.82
2023-04-06T23:07:43.806Z,4.87
2023-04-06T23:10:13.363Z,4.86
2023-04-06T23:12:44.643Z,4.87
2023-04-06T23:15:14.531Z,4.86
2023-04-06T23:17:43.998Z,4.82
2023-04-06T23:20:13.804Z,4.82
2023-04-06T23:22:43.332Z,4.84
2023-04-06T23:25:13.454Z,4.86
2023-04-06T23:27:44.012Z,4.86
2023-04-06T23:30:13.895Z,4.86
2023-04-06T23:32:43.666Z,4.87
2023-04-06T23:35:13.458Z,4.91
2023-04-06T23:37:42.713Z,4.92
2023-04-06T23:40:12.689Z,4.90
2023-04-06T23:42:43.031Z,4.92
2023-04-06T23:45:12.801Z,4.92
2023-04-06T23:47:42.061Z,4.90
2023-04-06T23:50:12.043Z,4.91
2023-04-06T23:52:41.465Z,4.95
2023-04-06T23:55:11.869Z,4.94
2023-04-06T23:57:41.039Z,4.93
